ANA572 RJCK-RJSK
Flight info
| Callsign | ANA572 |
|---|---|
| Flight time | 0h 53m |
| Altitude | 34000 |
| Route | HIDAK1 OBE DCT MRE V31 MAGGY MAGGYE |
| Aircraft | A321/M-SDE3FGHIRWY/LB1 |
Departure
| Time | 2026-05-05 22:37 |
|---|---|
| Airport | Kushiro Airport (RJCK) |
Arrival
| Time | 2026-05-05 23:31 |
|---|---|
| Airport | Akita Airport (RJSK) |
| Time | Latitude | Longitude | Altitude | Speed | Heading |
|---|---|---|---|---|---|
| 2026-05-05 22:19 | 43.04556 | 144.19508 | 315 ft | 0 kts | 69° |
| 2026-05-05 22:29 | 43.04551 | 144.19492 | 314 ft | 2 kts | 73° |
| 2026-05-05 22:29 | 43.04546 | 144.19472 | 314 ft | 2 kts | 67° |
| 2026-05-05 22:29 | 43.04541 | 144.19452 | 314 ft | 2 kts | 70° |
| 2026-05-05 22:29 | 43.04536 | 144.19434 | 314 ft | 2 kts | 69° |
| 2026-05-05 22:30 | 43.04530 | 144.19414 | 314 ft | 2 kts | 69° |
| 2026-05-05 22:30 | 43.04525 | 144.19395 | 314 ft | 2 kts | 69° |
| 2026-05-05 22:30 | 43.04520 | 144.19376 | 314 ft | 2 kts | 69° |
| 2026-05-05 22:30 | 43.04514 | 144.19357 | 314 ft | 2 kts | 69° |
| 2026-05-05 22:31 | 43.04510 | 144.19341 | 314 ft | 0 kts | 69° |
| 2026-05-05 22:31 | 43.04499 | 144.19327 | 314 ft | 2 kts | 354° |
| 2026-05-05 22:31 | 43.04489 | 144.19331 | 314 ft | 1 kts | 337° |
| 2026-05-05 22:31 | 43.04488 | 144.19331 | 314 ft | 0 kts | 338° |
| 2026-05-05 22:32 | 43.04489 | 144.19331 | 314 ft | 0 kts | 338° |
| 2026-05-05 22:33 | 43.04490 | 144.19331 | 314 ft | 1 kts | 338° |
| 2026-05-05 22:33 | 43.04510 | 144.19321 | 314 ft | 6 kts | 339° |
| 2026-05-05 22:33 | 43.04568 | 144.19292 | 314 ft | 11 kts | 340° |
| 2026-05-05 22:33 | 43.04649 | 144.19251 | 314 ft | 14 kts | 339° |
| 2026-05-05 22:34 | 43.04762 | 144.19191 | 314 ft | 20 kts | 339° |
| 2026-05-05 22:34 | 43.04911 | 144.19112 | 311 ft | 26 kts | 339° |
| 2026-05-05 22:34 | 43.05070 | 144.19022 | 305 ft | 21 kts | 323° |
| 2026-05-05 22:34 | 43.05138 | 144.18912 | 303 ft | 7 kts | 308° |
| 2026-05-05 22:35 | 43.05141 | 144.18906 | 303 ft | 0 kts | 307° |
| 2026-05-05 22:35 | 43.05150 | 144.18890 | 303 ft | 9 kts | 306° |
| 2026-05-05 22:35 | 43.05113 | 144.18771 | 309 ft | 17 kts | 188° |
| 2026-05-05 22:36 | 43.05025 | 144.18810 | 311 ft | 5 kts | 159° |
| 2026-05-05 22:36 | 43.05009 | 144.18817 | 311 ft | 3 kts | 159° |
| 2026-05-05 22:36 | 43.04785 | 144.18935 | 316 ft | 69 kts | 160° |
| 2026-05-05 22:36 | 43.04113 | 144.19287 | 306 ft | 133 kts | 159° |
| 2026-05-05 22:37 | 43.03112 | 144.19829 | 472 ft | 167 kts | 162° |
| 2026-05-05 22:37 | 43.02052 | 144.20453 | 1134 ft | 166 kts | 163° |
| 2026-05-05 22:37 | 43.00969 | 144.20927 | 1802 ft | 165 kts | 176° |
| 2026-05-05 22:37 | 42.99843 | 144.21071 | 2350 ft | 162 kts | 187° |
| 2026-05-05 22:38 | 42.98709 | 144.20924 | 2650 ft | 171 kts | 195° |
| 2026-05-05 22:38 | 42.97511 | 144.20468 | 2960 ft | 183 kts | 205° |
| 2026-05-05 22:38 | 42.96330 | 144.19690 | 3274 ft | 195 kts | 214° |
| 2026-05-05 22:38 | 42.95223 | 144.18568 | 3612 ft | 207 kts | 225° |
| 2026-05-05 22:39 | 42.94237 | 144.17011 | 3900 ft | 224 kts | 240° |
| 2026-05-05 22:39 | 42.93546 | 144.15062 | 4286 ft | 237 kts | 253° |
| 2026-05-05 22:39 | 42.93079 | 144.12888 | 4933 ft | 241 kts | 256° |
| 2026-05-05 22:39 | 42.92633 | 144.10707 | 5746 ft | 239 kts | 256° |
| 2026-05-05 22:40 | 42.92188 | 144.08533 | 6602 ft | 236 kts | 257° |
| 2026-05-05 22:40 | 42.91747 | 144.06396 | 7368 ft | 237 kts | 257° |
| 2026-05-05 22:40 | 42.91303 | 144.04248 | 8064 ft | 240 kts | 257° |
| 2026-05-05 22:40 | 42.90850 | 144.02068 | 8776 ft | 242 kts | 257° |
| 2026-05-05 22:41 | 42.90393 | 143.99883 | 9445 ft | 245 kts | 257° |
| 2026-05-05 22:41 | 42.89923 | 143.97647 | 10134 ft | 247 kts | 256° |
| 2026-05-05 22:41 | 42.89442 | 143.95361 | 10580 ft | 259 kts | 257° |
| 2026-05-05 22:41 | 42.88929 | 143.92921 | 10862 ft | 275 kts | 257° |
| 2026-05-05 22:42 | 42.88205 | 143.89496 | 11402 ft | 289 kts | 256° |
| 2026-05-05 22:42 | 42.87832 | 143.87733 | 11831 ft | 291 kts | 256° |
| 2026-05-05 22:42 | 42.87265 | 143.85077 | 12452 ft | 294 kts | 256° |
| 2026-05-05 22:42 | 42.86699 | 143.82430 | 13044 ft | 297 kts | 256° |
| 2026-05-05 22:43 | 42.86121 | 143.79718 | 13652 ft | 299 kts | 256° |
| 2026-05-05 22:43 | 42.85538 | 143.76981 | 14228 ft | 302 kts | 256° |
| 2026-05-05 22:43 | 42.84955 | 143.74258 | 14768 ft | 306 kts | 256° |
| 2026-05-05 22:43 | 42.84355 | 143.71449 | 15294 ft | 310 kts | 256° |
| 2026-05-05 22:44 | 42.83753 | 143.68633 | 15835 ft | 312 kts | 256° |
| 2026-05-05 22:44 | 42.83143 | 143.65788 | 16356 ft | 315 kts | 256° |
| 2026-05-05 22:44 | 42.82529 | 143.62933 | 16877 ft | 318 kts | 256° |
| 2026-05-05 22:44 | 42.81907 | 143.60037 | 17384 ft | 321 kts | 256° |
| 2026-05-05 22:45 | 42.81278 | 143.57124 | 17882 ft | 323 kts | 256° |
| 2026-05-05 22:45 | 42.80648 | 143.54211 | 18374 ft | 326 kts | 256° |
| 2026-05-05 22:45 | 42.80002 | 143.51218 | 18848 ft | 328 kts | 256° |
| 2026-05-05 22:45 | 42.79364 | 143.48263 | 19330 ft | 330 kts | 255° |
| 2026-05-05 22:46 | 42.78721 | 143.45294 | 19852 ft | 331 kts | 255° |
| 2026-05-05 22:46 | 42.78066 | 143.42284 | 20304 ft | 333 kts | 255° |
| 2026-05-05 22:46 | 42.77413 | 143.39278 | 20731 ft | 336 kts | 255° |
| 2026-05-05 22:46 | 42.76746 | 143.36226 | 21185 ft | 337 kts | 255° |
| 2026-05-05 22:47 | 42.76083 | 143.33174 | 21660 ft | 339 kts | 254° |
| 2026-05-05 22:47 | 42.75409 | 143.30089 | 22093 ft | 341 kts | 254° |
| 2026-05-05 22:47 | 42.74730 | 143.27005 | 22508 ft | 344 kts | 253° |
| 2026-05-05 22:47 | 42.73797 | 143.23979 | 22893 ft | 349 kts | 244° |
| 2026-05-05 22:48 | 42.72496 | 143.21207 | 23318 ft | 354 kts | 236° |
| 2026-05-05 22:48 | 42.70839 | 143.18698 | 23737 ft | 359 kts | 229° |
| 2026-05-05 22:48 | 42.69047 | 143.16301 | 24138 ft | 362 kts | 228° |
| 2026-05-05 22:48 | 42.67256 | 143.13945 | 24535 ft | 364 kts | 228° |
| 2026-05-05 22:49 | 42.65424 | 143.11536 | 24903 ft | 367 kts | 228° |
| 2026-05-05 22:49 | 42.63586 | 143.09126 | 25291 ft | 369 kts | 227° |
| 2026-05-05 22:49 | 42.61752 | 143.06723 | 25690 ft | 370 kts | 228° |
| 2026-05-05 22:49 | 42.59882 | 143.04269 | 26059 ft | 373 kts | 227° |
| 2026-05-05 22:50 | 42.58026 | 143.01845 | 26438 ft | 374 kts | 227° |
| 2026-05-05 22:50 | 42.56136 | 142.99379 | 26818 ft | 375 kts | 228° |
| 2026-05-05 22:50 | 42.54275 | 142.96941 | 27126 ft | 378 kts | 227° |
| 2026-05-05 22:50 | 42.52365 | 142.94446 | 27424 ft | 382 kts | 227° |
| 2026-05-05 22:51 | 42.50457 | 142.91952 | 27789 ft | 383 kts | 228° |
| 2026-05-05 22:51 | 42.48546 | 142.89462 | 28147 ft | 384 kts | 227° |
| 2026-05-05 22:51 | 42.46598 | 142.86919 | 28463 ft | 386 kts | 227° |
| 2026-05-05 22:51 | 42.44659 | 142.84398 | 28735 ft | 389 kts | 227° |
| 2026-05-05 22:52 | 42.42701 | 142.81851 | 29036 ft | 391 kts | 227° |
| 2026-05-05 22:52 | 42.40739 | 142.79303 | 29350 ft | 393 kts | 227° |
| 2026-05-05 22:52 | 42.38761 | 142.76732 | 29598 ft | 396 kts | 227° |
| 2026-05-05 22:52 | 42.36789 | 142.74173 | 29862 ft | 398 kts | 227° |
| 2026-05-05 22:53 | 42.34766 | 142.71552 | 30129 ft | 400 kts | 227° |
| 2026-05-05 22:53 | 42.32693 | 142.68869 | 30394 ft | 402 kts | 226° |
| 2026-05-05 22:53 | 42.30644 | 142.66222 | 30718 ft | 403 kts | 227° |
| 2026-05-05 22:53 | 42.28598 | 142.63579 | 31079 ft | 402 kts | 226° |
| 2026-05-05 22:54 | 42.26586 | 142.60983 | 31420 ft | 401 kts | 227° |
| 2026-05-05 22:54 | 42.24549 | 142.58360 | 31720 ft | 401 kts | 227° |
| 2026-05-05 22:54 | 42.22543 | 142.55774 | 31994 ft | 402 kts | 227° |
| 2026-05-05 22:54 | 42.20497 | 142.53140 | 32295 ft | 402 kts | 227° |
| 2026-05-05 22:55 | 42.18485 | 142.50554 | 32574 ft | 402 kts | 227° |
| 2026-05-05 22:55 | 42.16436 | 142.47919 | 32844 ft | 402 kts | 227° |
| 2026-05-05 22:55 | 42.14417 | 142.45326 | 33051 ft | 404 kts | 227° |
| 2026-05-05 22:55 | 42.12357 | 142.42683 | 33276 ft | 405 kts | 227° |
| 2026-05-05 22:56 | 42.10312 | 142.40063 | 33513 ft | 405 kts | 227° |
| 2026-05-05 22:56 | 42.08228 | 142.37395 | 33732 ft | 406 kts | 227° |
| 2026-05-05 22:56 | 42.06162 | 142.34753 | 33959 ft | 407 kts | 226° |
| 2026-05-05 22:57 | 42.02002 | 142.29439 | 34066 ft | 410 kts | 226° |
| 2026-05-05 22:57 | 41.97842 | 142.24136 | 34064 ft | 410 kts | 226° |
| 2026-05-05 22:58 | 41.93716 | 142.18889 | 34067 ft | 409 kts | 226° |
| 2026-05-05 22:58 | 41.89537 | 142.13582 | 34066 ft | 408 kts | 227° |
| 2026-05-05 22:59 | 41.85410 | 142.08351 | 34059 ft | 407 kts | 226° |
| 2026-05-05 22:59 | 41.81263 | 142.03104 | 34063 ft | 407 kts | 226° |
| 2026-05-05 23:00 | 41.75038 | 141.95245 | 34061 ft | 406 kts | 226° |
| 2026-05-05 23:00 | 41.70896 | 141.90030 | 34071 ft | 407 kts | 227° |
| 2026-05-05 23:01 | 41.66728 | 141.84790 | 34059 ft | 407 kts | 226° |
| 2026-05-05 23:01 | 41.62625 | 141.79643 | 34065 ft | 408 kts | 226° |
| 2026-05-05 23:02 | 41.58484 | 141.74455 | 34055 ft | 408 kts | 226° |
| 2026-05-05 23:02 | 41.54285 | 141.69206 | 34065 ft | 407 kts | 226° |
| 2026-05-05 23:03 | 41.50102 | 141.63988 | 34068 ft | 408 kts | 226° |
| 2026-05-05 23:03 | 41.45963 | 141.58835 | 34069 ft | 408 kts | 226° |
| 2026-05-05 23:04 | 41.41810 | 141.53674 | 34059 ft | 408 kts | 226° |
| 2026-05-05 23:04 | 41.37674 | 141.48541 | 34059 ft | 407 kts | 226° |
| 2026-05-05 23:05 | 41.33514 | 141.43388 | 34056 ft | 408 kts | 226° |
| 2026-05-05 23:05 | 41.29390 | 141.38290 | 34066 ft | 407 kts | 226° |
| 2026-05-05 23:06 | 41.25238 | 141.33166 | 34062 ft | 408 kts | 225° |
| 2026-05-05 23:06 | 41.21077 | 141.28040 | 34071 ft | 409 kts | 225° |
| 2026-05-05 23:07 | 41.18967 | 141.25444 | 33949 ft | 410 kts | 225° |
| 2026-05-05 23:07 | 41.16885 | 141.22887 | 33678 ft | 408 kts | 225° |
| 2026-05-05 23:07 | 41.14803 | 141.20331 | 33343 ft | 406 kts | 225° |
| 2026-05-05 23:07 | 41.12763 | 141.17827 | 32900 ft | 403 kts | 225° |
| 2026-05-05 23:08 | 41.10688 | 141.15285 | 32331 ft | 402 kts | 225° |
| 2026-05-05 23:08 | 41.08643 | 141.12778 | 31679 ft | 403 kts | 225° |
| 2026-05-05 23:08 | 41.06607 | 141.10286 | 31021 ft | 403 kts | 225° |
| 2026-05-05 23:08 | 41.04544 | 141.07767 | 30336 ft | 404 kts | 225° |
| 2026-05-05 23:09 | 41.02483 | 141.05246 | 29761 ft | 401 kts | 225° |
| 2026-05-05 23:09 | 41.00468 | 141.02789 | 29343 ft | 397 kts | 225° |
| 2026-05-05 23:09 | 40.98441 | 141.00320 | 28882 ft | 394 kts | 225° |
| 2026-05-05 23:09 | 40.96439 | 140.97881 | 28433 ft | 390 kts | 224° |
| 2026-05-05 23:10 | 40.94440 | 140.95450 | 28005 ft | 386 kts | 225° |
| 2026-05-05 23:10 | 40.92487 | 140.93074 | 27589 ft | 384 kts | 225° |
| 2026-05-05 23:10 | 40.90528 | 140.90695 | 27162 ft | 381 kts | 225° |
| 2026-05-05 23:10 | 40.88609 | 140.88367 | 26731 ft | 378 kts | 225° |
| 2026-05-05 23:11 | 40.86671 | 140.86015 | 26275 ft | 375 kts | 225° |
| 2026-05-05 23:11 | 40.84759 | 140.83697 | 25829 ft | 372 kts | 225° |
| 2026-05-05 23:11 | 40.82876 | 140.81416 | 25387 ft | 369 kts | 225° |
| 2026-05-05 23:11 | 40.81001 | 140.79147 | 24950 ft | 365 kts | 225° |
| 2026-05-05 23:12 | 40.79139 | 140.76894 | 24526 ft | 362 kts | 225° |
| 2026-05-05 23:12 | 40.77288 | 140.74660 | 24085 ft | 358 kts | 225° |
| 2026-05-05 23:12 | 40.75447 | 140.72539 | 23665 ft | 357 kts | 220° |
| 2026-05-05 23:12 | 40.73379 | 140.70712 | 23229 ft | 356 kts | 213° |
| 2026-05-05 23:13 | 40.71166 | 140.69293 | 22808 ft | 355 kts | 205° |
| 2026-05-05 23:13 | 40.68849 | 140.68156 | 22370 ft | 353 kts | 204° |
| 2026-05-05 23:13 | 40.66553 | 140.67084 | 21954 ft | 350 kts | 203° |
| 2026-05-05 23:13 | 40.64286 | 140.66032 | 21543 ft | 347 kts | 203° |
| 2026-05-05 23:14 | 40.62003 | 140.64972 | 21125 ft | 345 kts | 203° |
| 2026-05-05 23:14 | 40.59767 | 140.63933 | 20705 ft | 342 kts | 203° |
| 2026-05-05 23:14 | 40.57527 | 140.62889 | 20325 ft | 339 kts | 203° |
| 2026-05-05 23:14 | 40.55315 | 140.61861 | 19897 ft | 337 kts | 203° |
| 2026-05-05 23:15 | 40.53113 | 140.60834 | 19486 ft | 335 kts | 203° |
| 2026-05-05 23:15 | 40.50922 | 140.59813 | 19050 ft | 333 kts | 203° |
| 2026-05-05 23:15 | 40.48741 | 140.58800 | 18639 ft | 331 kts | 203° |
| 2026-05-05 23:15 | 40.46579 | 140.57793 | 18208 ft | 329 kts | 203° |
| 2026-05-05 23:16 | 40.44456 | 140.56804 | 17799 ft | 328 kts | 203° |
| 2026-05-05 23:16 | 40.42283 | 140.55794 | 17358 ft | 327 kts | 203° |
| 2026-05-05 23:16 | 40.40174 | 140.54816 | 16928 ft | 325 kts | 203° |
| 2026-05-05 23:16 | 40.38036 | 140.53824 | 16486 ft | 325 kts | 203° |
| 2026-05-05 23:17 | 40.35912 | 140.52838 | 16053 ft | 324 kts | 203° |
| 2026-05-05 23:17 | 40.33802 | 140.51859 | 15622 ft | 323 kts | 203° |
| 2026-05-05 23:17 | 40.31665 | 140.50868 | 15175 ft | 323 kts | 203° |
| 2026-05-05 23:17 | 40.29561 | 140.49896 | 14731 ft | 323 kts | 203° |
| 2026-05-05 23:18 | 40.27431 | 140.48910 | 14281 ft | 322 kts | 203° |
| 2026-05-05 23:18 | 40.25330 | 140.47939 | 13838 ft | 320 kts | 203° |
| 2026-05-05 23:18 | 40.23257 | 140.46980 | 13410 ft | 319 kts | 203° |
| 2026-05-05 23:18 | 40.21154 | 140.46011 | 13001 ft | 317 kts | 203° |
| 2026-05-05 23:19 | 40.19080 | 140.45056 | 12575 ft | 316 kts | 203° |
| 2026-05-05 23:19 | 40.17017 | 140.44104 | 12119 ft | 315 kts | 204° |
| 2026-05-05 23:19 | 40.14954 | 140.43153 | 11684 ft | 314 kts | 204° |
| 2026-05-05 23:19 | 40.12904 | 140.42210 | 11247 ft | 311 kts | 204° |
| 2026-05-05 23:20 | 40.10871 | 140.41275 | 10834 ft | 310 kts | 204° |
| 2026-05-05 23:20 | 40.08833 | 140.40335 | 10409 ft | 308 kts | 204° |
| 2026-05-05 23:20 | 40.06860 | 140.39430 | 10209 ft | 297 kts | 204° |
| 2026-05-05 23:20 | 40.04943 | 140.38553 | 10085 ft | 284 kts | 204° |
| 2026-05-05 23:21 | 40.03102 | 140.37711 | 9956 ft | 272 kts | 204° |
| 2026-05-05 23:21 | 40.01313 | 140.36890 | 9650 ft | 269 kts | 204° |
| 2026-05-05 23:21 | 39.99552 | 140.36079 | 9288 ft | 268 kts | 204° |
| 2026-05-05 23:21 | 39.97809 | 140.35275 | 8939 ft | 266 kts | 204° |
| 2026-05-05 23:22 | 39.96081 | 140.34483 | 8606 ft | 264 kts | 203° |
| 2026-05-05 23:22 | 39.94336 | 140.33684 | 8241 ft | 263 kts | 203° |
| 2026-05-05 23:22 | 39.92618 | 140.32944 | 7899 ft | 263 kts | 197° |
| 2026-05-05 23:22 | 39.90789 | 140.32825 | 7556 ft | 268 kts | 177° |
| 2026-05-05 23:23 | 39.88971 | 140.33435 | 7232 ft | 271 kts | 167° |
| 2026-05-05 23:23 | 39.87181 | 140.34201 | 6909 ft | 269 kts | 167° |
| 2026-05-05 23:23 | 39.85415 | 140.34973 | 6591 ft | 268 kts | 167° |
| 2026-05-05 23:23 | 39.83646 | 140.35736 | 6262 ft | 266 kts | 167° |
| 2026-05-05 23:24 | 39.81902 | 140.36478 | 5911 ft | 264 kts | 167° |
| 2026-05-05 23:24 | 39.80148 | 140.37218 | 5583 ft | 262 kts | 167° |
| 2026-05-05 23:24 | 39.78410 | 140.37950 | 5261 ft | 261 kts | 167° |
| 2026-05-05 23:24 | 39.76696 | 140.38672 | 4989 ft | 257 kts | 167° |
| 2026-05-05 23:25 | 39.74500 | 140.39600 | 4945 ft | 239 kts | 167° |
| 2026-05-05 23:25 | 39.73472 | 140.40034 | 4953 ft | 236 kts | 167° |
| 2026-05-05 23:25 | 39.71901 | 140.40692 | 4808 ft | 239 kts | 167° |
| 2026-05-05 23:25 | 39.70295 | 140.41357 | 4388 ft | 243 kts | 167° |
| 2026-05-05 23:26 | 39.68687 | 140.42027 | 4007 ft | 245 kts | 166° |
| 2026-05-05 23:26 | 39.67053 | 140.42696 | 3621 ft | 246 kts | 169° |
| 2026-05-05 23:26 | 39.65382 | 140.42882 | 3286 ft | 238 kts | 187° |
| 2026-05-05 23:26 | 39.63780 | 140.42651 | 3243 ft | 223 kts | 189° |
| 2026-05-05 23:27 | 39.62262 | 140.42383 | 3029 ft | 218 kts | 196° |
| 2026-05-05 23:27 | 39.61012 | 140.41469 | 2782 ft | 203 kts | 230° |
| 2026-05-05 23:27 | 39.60408 | 140.39882 | 2634 ft | 190 kts | 252° |
| 2026-05-05 23:27 | 39.60229 | 140.38225 | 2385 ft | 178 kts | 265° |
| 2026-05-05 23:28 | 39.60265 | 140.36706 | 2165 ft | 161 kts | 271° |
| 2026-05-05 23:28 | 39.60370 | 140.35319 | 1989 ft | 148 kts | 273° |
| 2026-05-05 23:28 | 39.60489 | 140.33993 | 1962 ft | 148 kts | 274° |
| 2026-05-05 23:28 | 39.60607 | 140.32678 | 1763 ft | 147 kts | 272° |
| 2026-05-05 23:29 | 39.60724 | 140.31357 | 1559 ft | 146 kts | 273° |
| 2026-05-05 23:29 | 39.60837 | 140.30057 | 1378 ft | 146 kts | 275° |
| 2026-05-05 23:29 | 39.60952 | 140.28757 | 1171 ft | 145 kts | 274° |
| 2026-05-05 23:29 | 39.61066 | 140.27457 | 986 ft | 145 kts | 274° |
| 2026-05-05 23:30 | 39.61176 | 140.26160 | 777 ft | 146 kts | 275° |
| 2026-05-05 23:30 | 39.61299 | 140.24855 | 594 ft | 146 kts | 275° |
| 2026-05-05 23:30 | 39.61412 | 140.23553 | 399 ft | 144 kts | 275° |
| 2026-05-05 23:30 | 39.61525 | 140.22342 | 318 ft | 112 kts | 274° |
| 2026-05-05 23:31 | 39.61560 | 140.21729 | 310 ft | 32 kts | 239° |
| 2026-05-05 23:31 | 39.61436 | 140.21683 | 313 ft | 15 kts | 165° |
| 2026-05-05 23:31 | 39.61400 | 140.21790 | 315 ft | 13 kts | 92° |
| 2026-05-05 23:31 | 39.61394 | 140.21905 | 316 ft | 10 kts | 105° |
| 2026-05-05 23:32 | 39.61336 | 140.21933 | 318 ft | 8 kts | 188° |
| 2026-05-05 23:32 | 39.61283 | 140.21924 | 320 ft | 6 kts | 186° |
| 2026-05-05 23:32 | 39.61253 | 140.21919 | 321 ft | 1 kts | 186° |
| 2026-05-05 23:32 | 39.61252 | 140.21919 | 321 ft | 0 kts | 186° |